sensor_id;sensor_type;location;lat;lon;timestamp;pressure;altitude;pressure_sealevel;temperature;humidity
2563;BME280;1291;51.420;6.970;2023-05-07T00:01:37;100043.25;;;31.17;nan
2563;BME280;1291;51.420;6.970;2023-05-07T00:04:02;100057.38;;;30.08;nan
2563;BME280;1291;51.420;6.970;2023-05-07T00:06:29;100061.00;;;31.04;nan
2563;BME280;1291;51.420;6.970;2023-05-07T00:08:58;100055.31;;;30.13;nan
2563;BME280;1291;51.420;6.970;2023-05-07T00:11:24;100048.72;;;30.84;nan
2563;BME280;1291;51.420;6.970;2023-05-07T00:13:50;100050.09;;;31.37;nan
2563;BME280;1291;51.420;6.970;2023-05-07T00:16:16;100051.16;;;31.34;nan
2563;BME280;1291;51.420;6.970;2023-05-07T00:18:41;100056.13;;;31.57;nan
2563;BME280;1291;51.420;6.970;2023-05-07T00:21:06;100043.38;;;31.00;nan
2563;BME280;1291;51.420;6.970;2023-05-07T00:23:32;100045.94;;;30.85;nan
2563;BME280;1291;51.420;6.970;2023-05-07T00:25:57;100036.47;;;31.56;nan
2563;BME280;1291;51.420;6.970;2023-05-07T00:28:23;100043.09;;;31.04;nan
2563;BME280;1291;51.420;6.970;2023-05-07T00:30:48;100048.59;;;31.78;nan
2563;BME280;1291;51.420;6.970;2023-05-07T00:33:13;100046.66;;;30.89;nan
2563;BME280;1291;51.420;6.970;2023-05-07T00:35:38;100032.19;;;31.07;nan
2563;BME280;1291;51.420;6.970;2023-05-07T00:38:04;100029.81;;;30.55;nan
2563;BME280;1291;51.420;6.970;2023-05-07T00:40:29;100029.19;;;31.28;nan
2563;BME280;1291;51.420;6.970;2023-05-07T00:42:54;100024.59;;;31.00;nan
2563;BME280;1291;51.420;6.970;2023-05-07T00:45:28;100028.34;;;30.00;nan
2563;BME280;1291;51.420;6.970;2023-05-07T00:47:59;100026.88;;;30.75;nan
2563;BME280;1291;51.420;6.970;2023-05-07T00:50:25;100022.09;;;30.81;nan
2563;BME280;1291;51.420;6.970;2023-05-07T00:52:51;100024.78;;;30.65;nan
2563;BME280;1291;51.420;6.970;2023-05-07T00:55:17;100023.50;;;30.56;nan
2563;BME280;1291;51.420;6.970;2023-05-07T00:57:43;100017.69;;;30.32;nan
2563;BME280;1291;51.420;6.970;2023-05-07T01:00:10;100022.72;;;30.70;nan
2563;BME280;1291;51.420;6.970;2023-05-07T01:02:36;100025.19;;;30.89;nan
2563;BME280;1291;51.420;6.970;2023-05-07T01:05:04;100022.53;;;30.73;nan
2563;BME280;1291;51.420;6.970;2023-05-07T01:07:31;100026.69;;;30.47;nan
2563;BME280;1291;51.420;6.970;2023-05-07T01:09:58;100020.97;;;30.53;nan
2563;BME280;1291;51.420;6.970;2023-05-07T01:12:24;100035.88;;;31.21;nan
2563;BME280;1291;51.420;6.970;2023-05-07T01:14:50;100017.66;;;31.11;nan
2563;BME280;1291;51.420;6.970;2023-05-07T01:17:16;100022.59;;;31.03;nan
2563;BME280;1291;51.420;6.970;2023-05-07T01:19:44;100026.16;;;30.88;nan
2563;BME280;1291;51.420;6.970;2023-05-07T01:22:10;100025.13;;;30.74;nan
2563;BME280;1291;51.420;6.970;2023-05-07T01:24:39;100028.44;;;31.10;nan
2563;BME280;1291;51.420;6.970;2023-05-07T01:27:05;100021.13;;;30.98;nan
2563;BME280;1291;51.420;6.970;2023-05-07T01:29:30;100023.66;;;30.69;nan
2563;BME280;1291;51.420;6.970;2023-05-07T01:31:57;100022.28;;;31.24;nan
2563;BME280;1291;51.420;6.970;2023-05-07T01:34:25;100017.00;;;30.92;nan
2563;BME280;1291;51.420;6.970;2023-05-07T01:36:53;100029.63;;;30.90;nan
2563;BME280;1291;51.420;6.970;2023-05-07T01:39:18;100018.41;;;31.13;nan
2563;BME280;1291;51.420;6.970;2023-05-07T01:41:44;100021.34;;;31.39;nan
2563;BME280;1291;51.420;6.970;2023-05-07T01:44:12;100021.03;;;30.83;nan
2563;BME280;1291;51.420;6.970;2023-05-07T01:46:37;100014.91;;;31.27;nan
2563;BME280;1291;51.420;6.970;2023-05-07T01:49:03;100017.16;;;30.25;nan
2563;BME280;1291;51.420;6.970;2023-05-07T01:51:29;100014.13;;;30.79;nan
2563;BME280;1291;51.420;6.970;2023-05-07T01:53:55;100012.69;;;30.58;nan
2563;BME280;1291;51.420;6.970;2023-05-07T01:56:20;100014.41;;;30.74;nan
2563;BME280;1291;51.420;6.970;2023-05-07T01:58:46;100010.63;;;29.98;nan
2563;BME280;1291;51.420;6.970;2023-05-07T02:01:13;100016.78;;;30.00;nan
2563;BME280;1291;51.420;6.970;2023-05-07T02:03:38;100019.72;;;30.11;nan
2563;BME280;1291;51.420;6.970;2023-05-07T02:06:04;100022.09;;;30.81;nan
2563;BME280;1291;51.420;6.970;2023-05-07T02:08:29;100014.13;;;30.95;nan
2563;BME280;1291;51.420;6.970;2023-05-07T02:10:55;100019.84;;;30.73;nan
2563;BME280;1291;51.420;6.970;2023-05-07T02:13:20;100014.72;;;31.00;nan
2563;BME280;1291;51.420;6.970;2023-05-07T02:15:47;100013.50;;;31.06;nan
2563;BME280;1291;51.420;6.970;2023-05-07T02:18:16;100009.38;;;30.84;nan
2563;BME280;1291;51.420;6.970;2023-05-07T02:20:42;100010.94;;;31.19;nan
2563;BME280;1291;51.420;6.970;2023-05-07T02:23:07;100008.47;;;31.30;nan
2563;BME280;1291;51.420;6.970;2023-05-07T02:25:32;100011.81;;;30.89;nan
2563;BME280;1291;51.420;6.970;2023-05-07T02:27:58;100013.72;;;30.39;nan
2563;BME280;1291;51.420;6.970;2023-05-07T02:30:25;100010.94;;;30.72;nan
2563;BME280;1291;51.420;6.970;2023-05-07T02:32:50;100015.00;;;30.32;nan
2563;BME280;1291;51.420;6.970;2023-05-07T02:35:16;100012.56;;;30.75;nan
2563;BME280;1291;51.420;6.970;2023-05-07T02:37:41;100008.47;;;30.04;nan
2563;BME280;1291;51.420;6.970;2023-05-07T02:40:07;100015.81;;;29.32;nan
2563;BME280;1291;51.420;6.970;2023-05-07T02:42:32;100010.75;;;29.61;nan
2563;BME280;1291;51.420;6.970;2023-05-07T02:44:58;100009.75;;;29.97;nan
2563;BME280;1291;51.420;6.970;2023-05-07T02:47:24;100017.00;;;30.60;nan
2563;BME280;1291;51.420;6.970;2023-05-07T02:49:53;100013.50;;;30.10;nan
2563;BME280;1291;51.420;6.970;2023-05-07T02:52:18;100007.88;;;30.32;nan
2563;BME280;1291;51.420;6.970;2023-05-07T02:54:43;100002.66;;;30.45;nan
2563;BME280;1291;51.420;6.970;2023-05-07T02:57:09;99997.44;;;30.26;nan
2563;BME280;1291;51.420;6.970;2023-05-07T02:59:34;99993.16;;;30.40;nan
2563;BME280;1291;51.420;6.970;2023-05-07T03:01:59;100002.16;;;30.39;nan
2563;BME280;1291;51.420;6.970;2023-05-07T03:04:25;100011.13;;;29.71;nan
2563;BME280;1291;51.420;6.970;2023-05-07T03:06:50;99997.78;;;30.20;nan
2563;BME280;1291;51.420;6.970;2023-05-07T03:09:16;100008.41;;;29.72;nan
2563;BME280;1291;51.420;6.970;2023-05-07T03:11:41;100016.25;;;30.09;nan
2563;BME280;1291;51.420;6.970;2023-05-07T03:14:07;100017.53;;;30.35;nan
2563;BME280;1291;51.420;6.970;2023-05-07T03:16:32;100015.25;;;30.27;nan
2563;BME280;1291;51.420;6.970;2023-05-07T03:18:57;100020.69;;;29.42;nan
2563;BME280;1291;51.420;6.970;2023-05-07T03:21:23;100016.44;;;30.06;nan
2563;BME280;1291;51.420;6.970;2023-05-07T03:23:48;100027.13;;;29.90;nan
2563;BME280;1291;51.420;6.970;2023-05-07T03:26:13;100024.53;;;30.04;nan
2563;BME280;1291;51.420;6.970;2023-05-07T03:28:39;100016.03;;;30.29;nan
2563;BME280;1291;51.420;6.970;2023-05-07T03:31:04;100014.03;;;30.17;nan
2563;BME280;1291;51.420;6.970;2023-05-07T03:33:32;100014.94;;;30.00;nan
2563;BME280;1291;51.420;6.970;2023-05-07T03:35:57;100006.09;;;30.15;nan
2563;BME280;1291;51.420;6.970;2023-05-07T03:38:23;100007.38;;;29.40;nan
2563;BME280;1291;51.420;6.970;2023-05-07T03:40:48;100007.56;;;29.37;nan
2563;BME280;1291;51.420;6.970;2023-05-07T03:43:13;100006.13;;;29.65;nan
2563;BME280;1291;51.420;6.970;2023-05-07T03:45:39;100008.88;;;29.28;nan
2563;BME280;1291;51.420;6.970;2023-05-07T03:48:04;100004.34;;;29.13;nan
2563;BME280;1291;51.420;6.970;2023-05-07T03:50:29;100008.69;;;29.33;nan
2563;BME280;1291;51.420;6.970;2023-05-07T03:52:55;100004.69;;;30.24;nan
2563;BME280;1291;51.420;6.970;2023-05-07T03:55:21;100006.81;;;30.51;nan
2563;BME280;1291;51.420;6.970;2023-05-07T03:57:46;100008.22;;;29.75;nan
2563;BME280;1291;51.420;6.970;2023-05-07T04:00:12;100007.41;;;30.40;nan
2563;BME280;1291;51.420;6.970;2023-05-07T04:02:38;100005.84;;;30.36;nan
2563;BME280;1291;51.420;6.970;2023-05-07T04:05:03;100012.13;;;30.19;nan
2563;BME280;1291;51.420;6.970;2023-05-07T04:07:29;100013.34;;;29.63;nan
2563;BME280;1291;51.420;6.970;2023-05-07T04:09:57;100017.84;;;30.13;nan
2563;BME280;1291;51.420;6.970;2023-05-07T04:12:22;100019.81;;;29.76;nan
2563;BME280;1291;51.420;6.970;2023-05-07T04:14:48;100020.59;;;30.27;nan
2563;BME280;1291;51.420;6.970;2023-05-07T04:17:13;100022.03;;;30.34;nan
2563;BME280;1291;51.420;6.970;2023-05-07T04:19:38;100016.34;;;29.91;nan
2563;BME280;1291;51.420;6.970;2023-05-07T04:22:04;100020.34;;;29.83;nan
2563;BME280;1291;51.420;6.970;2023-05-07T04:24:32;100015.97;;;30.47;nan
2563;BME280;1291;51.420;6.970;2023-05-07T04:26:58;100024.53;;;30.04;nan
2563;BME280;1291;51.420;6.970;2023-05-07T04:29:23;100031.66;;;30.21;nan
2563;BME280;1291;51.420;6.970;2023-05-07T04:31:49;100020.28;;;30.49;nan
2563;BME280;1291;51.420;6.970;2023-05-07T04:34:14;100020.28;;;30.49;nan
2563;BME280;1291;51.420;6.970;2023-05-07T04:36:40;100030.94;;;30.51;nan
2563;BME280;1291;51.420;6.970;2023-05-07T04:39:05;100027.63;;;30.46;nan
2563;BME280;1291;51.420;6.970;2023-05-07T04:41:31;100038.72;;;28.84;nan
2563;BME280;1291;51.420;6.970;2023-05-07T04:43:57;100035.88;;;29.24;nan
2563;BME280;1291;51.420;6.970;2023-05-07T04:46:24;100031.34;;;28.32;nan
2563;BME280;1291;51.420;6.970;2023-05-07T04:48:49;100031.50;;;28.67;nan
2563;BME280;1291;51.420;6.970;2023-05-07T04:51:14;100032.97;;;29.28;nan
2563;BME280;1291;51.420;6.970;2023-05-07T04:53:40;100024.53;;;29.01;nan
2563;BME280;1291;51.420;6.970;2023-05-07T04:56:05;100033.72;;;29.65;nan
2563;BME280;1291;51.420;6.970;2023-05-07T04:58:31;100030.84;;;29.17;nan
2563;BME280;1291;51.420;6.970;2023-05-07T05:00:57;100036.44;;;29.13;nan
2563;BME280;1291;51.420;6.970;2023-05-07T05:03:23;100041.22;;;28.51;nan
2563;BME280;1291;51.420;6.970;2023-05-07T05:05:51;100041.09;;;29.27;nan
2563;BME280;1291;51.420;6.970;2023-05-07T05:08:17;100042.78;;;28.74;nan
2563;BME280;1291;51.420;6.970;2023-05-07T05:10:43;100049.09;;;28.90;nan
2563;BME280;1291;51.420;6.970;2023-05-07T05:13:09;100039.03;;;28.59;nan
2563;BME280;1291;51.420;6.970;2023-05-07T05:15:35;100046.75;;;29.02;nan
2563;BME280;1291;51.420;6.970;2023-05-07T05:18:00;100045.25;;;28.40;nan
2563;BME280;1291;51.420;6.970;2023-05-07T05:20:25;100040.44;;;28.85;nan
2563;BME280;1291;51.420;6.970;2023-05-07T05:22:51;100056.44;;;27.70;nan
2563;BME280;1291;51.420;6.970;2023-05-07T05:25:16;100054.03;;;28.43;nan
2563;BME280;1291;51.420;6.970;2023-05-07T05:27:42;100050.44;;;28.25;nan
2563;BME280;1291;51.420;6.970;2023-05-07T05:30:07;100051.47;;;28.20;nan
2563;BME280;1291;51.420;6.970;2023-05-07T05:32:32;100045.09;;;28.99;nan
2563;BME280;1291;51.420;6.970;2023-05-07T05:34:58;100052.31;;;28.79;nan
2563;BME280;1291;51.420;6.970;2023-05-07T05:37:23;100053.88;;;28.46;nan
2563;BME280;1291;51.420;6.970;2023-05-07T05:39:49;100050.75;;;27.98;nan
2563;BME280;1291;51.420;6.970;2023-05-07T05:42:14;100054.16;;;28.20;nan
2563;BME280;1291;51.420;6.970;2023-05-07T05:44:39;100055.97;;;28.77;nan
2563;BME280;1291;51.420;6.970;2023-05-07T05:47:04;100060.91;;;28.67;nan
2563;BME280;1291;51.420;6.970;2023-05-07T05:49:30;100055.41;;;29.07;nan
2563;BME280;1291;51.420;6.970;2023-05-07T05:51:55;100061.69;;;29.25;nan
2563;BME280;1291;51.420;6.970;2023-05-07T05:54:21;100067.25;;;28.84;nan
2563;BME280;1291;51.420;6.970;2023-05-07T05:56:46;100059.94;;;29.58;nan
2563;BME280;1291;51.420;6.970;2023-05-07T05:59:11;100063.66;;;29.56;nan
2563;BME280;1291;51.420;6.970;2023-05-07T06:01:37;100062.50;;;28.52;nan
2563;BME280;1291;51.420;6.970;2023-05-07T06:04:02;100061.94;;;29.72;nan
2563;BME280;1291;51.420;6.970;2023-05-07T06:06:28;100059.91;;;29.77;nan
2563;BME280;1291;51.420;6.970;2023-05-07T06:08:53;100061.44;;;29.29;nan
2563;BME280;1291;51.420;6.970;2023-05-07T06:11:18;100064.06;;;29.48;nan
2563;BME280;1291;51.420;6.970;2023-05-07T06:13:44;100065.81;;;30.00;nan
2563;BME280;1291;51.420;6.970;2023-05-07T06:16:09;100058.03;;;29.95;nan
2563;BME280;1291;51.420;6.970;2023-05-07T06:18:34;100071.13;;;29.32;nan
2563;BME280;1291;51.420;6.970;2023-05-07T06:21:01;100066.22;;;30.26;nan
2563;BME280;1291;51.420;6.970;2023-05-07T06:23:26;100061.59;;;30.61;nan
2563;BME280;1291;51.420;6.970;2023-05-07T06:25:52;100076.47;;;30.17;nan
2563;BME280;1291;51.420;6.970;2023-05-07T06:28:17;100082.59;;;30.04;nan
2563;BME280;1291;51.420;6.970;2023-05-07T06:30:43;100076.81;;;30.45;nan
2563;BME280;1291;51.420;6.970;2023-05-07T06:33:08;100085.19;;;30.05;nan
2563;BME280;1291;51.420;6.970;2023-05-07T06:35:33;100083.38;;;30.06;nan
2563;BME280;1291;51.420;6.970;2023-05-07T06:38:00;100076.63;;;30.64;nan
2563;BME280;1291;51.420;6.970;2023-05-07T06:40:27;100081.81;;;30.02;nan
2563;BME280;1291;51.420;6.970;2023-05-07T06:42:52;100081.41;;;30.09;nan
2563;BME280;1291;51.420;6.970;2023-05-07T06:45:19;100084.72;;;29.97;nan
2563;BME280;1291;51.420;6.970;2023-05-07T06:47:45;100076.66;;;30.80;nan
2563;BME280;1291;51.420;6.970;2023-05-07T06:50:10;100086.38;;;30.00;nan
2563;BME280;1291;51.420;6.970;2023-05-07T06:52:35;100076.22;;;30.87;nan
2563;BME280;1291;51.420;6.970;2023-05-07T06:55:01;100078.75;;;30.90;nan
2563;BME280;1291;51.420;6.970;2023-05-07T06:57:26;100080.22;;;31.42;nan
2563;BME280;1291;51.420;6.970;2023-05-07T06:59:51;100077.75;;;30.44;nan
2563;BME280;1291;51.420;6.970;2023-05-07T07:02:17;100072.31;;;30.77;nan
2563;BME280;1291;51.420;6.970;2023-05-07T07:04:42;100079.94;;;29.34;nan
2563;BME280;1291;51.420;6.970;2023-05-07T07:07:07;100082.59;;;30.37;nan
2563;BME280;1291;51.420;6.970;2023-05-07T07:09:33;100084.94;;;30.59;nan
2563;BME280;1291;51.420;6.970;2023-05-07T07:11:58;100082.34;;;31.21;nan
2563;BME280;1291;51.420;6.970;2023-05-07T07:14:23;100074.91;;;30.79;nan
2563;BME280;1291;51.420;6.970;2023-05-07T07:16:49;100077.97;;;31.34;nan
2563;BME280;1291;51.420;6.970;2023-05-07T07:19:14;100084.19;;;31.35;nan
2563;BME280;1291;51.420;6.970;2023-05-07T07:21:42;100081.25;;;31.70;nan
2563;BME280;1291;51.420;6.970;2023-05-07T07:24:08;100079.56;;;31.23;nan
2563;BME280;1291;51.420;6.970;2023-05-07T07:26:33;100082.00;;;30.64;nan
2563;BME280;1291;51.420;6.970;2023-05-07T07:28:58;100083.00;;;29.44;nan
2563;BME280;1291;51.420;6.970;2023-05-07T07:31:24;100093.50;;;29.12;nan
2563;BME280;1291;51.420;6.970;2023-05-07T07:33:49;100080.19;;;30.48;nan
2563;BME280;1291;51.420;6.970;2023-05-07T07:36:15;100079.41;;;30.46;nan
2563;BME280;1291;51.420;6.970;2023-05-07T07:41:47;100087.34;;;29.81;nan
2563;BME280;1291;51.420;6.970;2023-05-07T07:44:13;100087.91;;;30.70;nan
2563;BME280;1291;51.420;6.970;2023-05-07T07:46:38;100085.72;;;30.61;nan
2563;BME280;1291;51.420;6.970;2023-05-07T07:49:03;100093.41;;;30.51;nan
2563;BME280;1291;51.420;6.970;2023-05-07T07:51:29;100104.50;;;31.09;nan
2563;BME280;1291;51.420;6.970;2023-05-07T07:53:54;100104.75;;;30.72;nan
2563;BME280;1291;51.420;6.970;2023-05-07T07:56:19;100103.81;;;31.05;nan
2563;BME280;1291;51.420;6.970;2023-05-07T07:58:45;100108.91;;;30.78;nan
2563;BME280;1291;51.420;6.970;2023-05-07T08:01:10;100102.34;;;30.84;nan
2563;BME280;1291;51.420;6.970;2023-05-07T08:03:37;100104.81;;;31.19;nan
2563;BME280;1291;51.420;6.970;2023-05-07T08:06:03;100114.00;;;30.67;nan
2563;BME280;1291;51.420;6.970;2023-05-07T08:08:28;100103.78;;;30.73;nan
2563;BME280;1291;51.420;6.970;2023-05-07T08:10:53;100111.31;;;30.51;nan
2563;BME280;1291;51.420;6.970;2023-05-07T08:13:19;100105.97;;;32.34;nan
2563;BME280;1291;51.420;6.970;2023-05-07T08:15:44;100112.19;;;32.63;nan
2563;BME280;1291;51.420;6.970;2023-05-07T08:18:10;100098.59;;;33.61;nan
2563;BME280;1291;51.420;6.970;2023-05-07T08:20:35;100113.03;;;33.20;nan
2563;BME280;1291;51.420;6.970;2023-05-07T08:23:04;100107.50;;;32.09;nan
2563;BME280;1291;51.420;6.970;2023-05-07T08:25:33;100103.78;;;33.24;nan
2563;BME280;1291;51.420;6.970;2023-05-07T08:27:58;100103.63;;;33.80;nan
2563;BME280;1291;51.420;6.970;2023-05-07T08:30:23;100112.19;;;32.63;nan
2563;BME280;1291;51.420;6.970;2023-05-07T08:32:49;100111.72;;;31.55;nan
2563;BME280;1291;51.420;6.970;2023-05-07T08:35:14;100111.81;;;32.55;nan
2563;BME280;1291;51.420;6.970;2023-05-07T08:40:51;100110.13;;;32.96;nan
2563;BME280;1291;51.420;6.970;2023-05-07T08:43:18;100114.78;;;32.36;nan
2563;BME280;1291;51.420;6.970;2023-05-07T08:45:45;100112.69;;;33.92;nan
2563;BME280;1291;51.420;6.970;2023-05-07T08:48:15;100111.66;;;33.00;nan
2563;BME280;1291;51.420;6.970;2023-05-07T08:50:41;100106.34;;;32.98;nan
2563;BME280;1291;51.420;6.970;2023-05-07T08:53:07;100113.81;;;32.51;nan
2563;BME280;1291;51.420;6.970;2023-05-07T08:55:32;100103.59;;;32.58;nan
2563;BME280;1291;51.420;6.970;2023-05-07T08:57:58;100100.38;;;33.07;nan
2563;BME280;1291;51.420;6.970;2023-05-07T09:00:27;100103.94;;;33.35;nan
2563;BME280;1291;51.420;6.970;2023-05-07T09:02:53;100087.41;;;34.44;nan
2563;BME280;1291;51.420;6.970;2023-05-07T09:05:19;100103.63;;;33.93;nan
2563;BME280;1291;51.420;6.970;2023-05-07T09:07:47;100107.09;;;33.15;nan
2563;BME280;1291;51.420;6.970;2023-05-07T09:10:13;100109.66;;;32.89;nan
2563;BME280;1291;51.420;6.970;2023-05-07T09:12:39;100115.16;;;32.73;nan
2563;BME280;1291;51.420;6.970;2023-05-07T09:15:05;100104.88;;;32.80;nan
2563;BME280;1291;51.420;6.970;2023-05-07T09:17:30;100099.41;;;31.95;nan
2563;BME280;1291;51.420;6.970;2023-05-07T09:19:56;100098.38;;;32.55;nan
2563;BME280;1291;51.420;6.970;2023-05-07T09:22:21;100099.88;;;32.88;nan
2563;BME280;1291;51.420;6.970;2023-05-07T09:24:50;100093.19;;;33.35;nan
2563;BME280;1291;51.420;6.970;2023-05-07T09:27:17;100100.16;;;33.25;nan
2563;BME280;1291;51.420;6.970;2023-05-07T09:29:46;100097.53;;;33.51;nan
2563;BME280;1291;51.420;6.970;2023-05-07T09:32:11;100096.78;;;32.94;nan
2563;BME280;1291;51.420;6.970;2023-05-07T09:34:36;100101.91;;;33.92;nan
2563;BME280;1291;51.420;6.970;2023-05-07T09:37:04;100103.97;;;32.94;nan
2563;BME280;1291;51.420;6.970;2023-05-07T09:39:57;100105.88;;;32.64;nan
2563;BME280;1291;51.420;6.970;2023-05-07T09:42:24;100108.16;;;32.70;nan
2563;BME280;1291;51.420;6.970;2023-05-07T09:44:51;100101.53;;;32.47;nan
2563;BME280;1291;51.420;6.970;2023-05-07T09:47:19;100097.38;;;34.05;nan
2563;BME280;1291;51.420;6.970;2023-05-07T09:49:47;100097.66;;;34.52;nan
2563;BME280;1291;51.420;6.970;2023-05-07T09:52:13;100103.28;;;33.84;nan
2563;BME280;1291;51.420;6.970;2023-05-07T09:54:40;100103.75;;;35.16;nan
2563;BME280;1291;51.420;6.970;2023-05-07T09:57:05;100096.19;;;33.83;nan
2563;BME280;1291;51.420;6.970;2023-05-07T09:59:37;100094.09;;;34.51;nan
2563;BME280;1291;51.420;6.970;2023-05-07T10:02:03;100106.31;;;33.40;nan
2563;BME280;1291;51.420;6.970;2023-05-07T10:04:31;100103.19;;;33.99;nan
2563;BME280;1291;51.420;6.970;2023-05-07T10:06:59;100100.97;;;32.98;nan
2563;BME280;1291;51.420;6.970;2023-05-07T10:09:25;100095.19;;;33.04;nan
2563;BME280;1291;51.420;6.970;2023-05-07T10:11:52;100102.06;;;31.20;nan
2563;BME280;1291;51.420;6.970;2023-05-07T10:14:19;100095.84;;;33.75;nan
2563;BME280;1291;51.420;6.970;2023-05-07T10:16:46;100087.25;;;34.84;nan
2563;BME280;1291;51.420;6.970;2023-05-07T10:19:12;100103.72;;;34.04;nan
2563;BME280;1291;51.420;6.970;2023-05-07T10:21:40;100103.34;;;34.23;nan
2563;BME280;1291;51.420;6.970;2023-05-07T10:24:26;100096.69;;;32.81;nan
2563;BME280;1291;51.420;6.970;2023-05-07T10:26:55;100093.19;;;35.84;nan
2563;BME280;1291;51.420;6.970;2023-05-07T10:29:42;100093.56;;;35.79;nan
2563;BME280;1291;51.420;6.970;2023-05-07T10:34:49;100106.75;;;34.38;nan
2563;BME280;1291;51.420;6.970;2023-05-07T10:37:16;100110.28;;;33.34;nan
2563;BME280;1291;51.420;6.970;2023-05-07T10:39:42;100103.88;;;34.15;nan
2563;BME280;1291;51.420;6.970;2023-05-07T10:42:14;100099.09;;;35.54;nan
2563;BME280;1291;51.420;6.970;2023-05-07T10:44:40;100105.53;;;35.64;nan
2563;BME280;1291;51.420;6.970;2023-05-07T10:47:13;100098.34;;;35.40;nan
2563;BME280;1291;51.420;6.970;2023-05-07T10:52:18;100099.94;;;34.06;nan
2563;BME280;1291;51.420;6.970;2023-05-07T10:54:45;100100.34;;;35.01;nan
2563;BME280;1291;51.420;6.970;2023-05-07T10:57:38;100103.81;;;33.77;nan
2563;BME280;1291;51.420;6.970;2023-05-07T11:05:25;100098.66;;;35.12;nan
2563;BME280;1291;51.420;6.970;2023-05-07T11:08:01;100086.16;;;34.86;nan
2563;BME280;1291;51.420;6.970;2023-05-07T11:10:55;100096.53;;;35.17;nan
2563;BME280;1291;51.420;6.970;2023-05-07T11:13:41;100097.38;;;35.17;nan
2563;BME280;1291;51.420;6.970;2023-05-07T11:16:17;100092.53;;;35.10;nan
2563;BME280;1291;51.420;6.970;2023-05-07T11:18:47;100098.38;;;32.97;nan
2563;BME280;1291;51.420;6.970;2023-05-07T11:21:32;100091.97;;;34.43;nan
2563;BME280;1291;51.420;6.970;2023-05-07T11:23:58;100087.81;;;35.00;nan
2563;BME280;1291;51.420;6.970;2023-05-07T11:26:24;100089.72;;;33.99;nan
2563;BME280;1291;51.420;6.970;2023-05-07T11:28:51;100085.06;;;34.52;nan
2563;BME280;1291;51.420;6.970;2023-05-07T11:31:27;100080.00;;;34.84;nan
2563;BME280;1291;51.420;6.970;2023-05-07T11:33:54;100085.16;;;35.60;nan
2563;BME280;1291;51.420;6.970;2023-05-07T11:36:20;100090.22;;;34.68;nan
2563;BME280;1291;51.420;6.970;2023-05-07T11:38:46;100081.53;;;35.95;nan
2563;BME280;1291;51.420;6.970;2023-05-07T11:41:11;100083.50;;;34.61;nan
2563;BME280;1291;51.420;6.970;2023-05-07T11:43:54;100088.72;;;35.25;nan
2563;BME280;1291;51.420;6.970;2023-05-07T11:46:21;100080.97;;;34.34;nan
2563;BME280;1291;51.420;6.970;2023-05-07T11:48:46;100079.38;;;34.81;nan
2563;BME280;1291;51.420;6.970;2023-05-07T11:51:12;100084.88;;;34.04;nan
2563;BME280;1291;51.420;6.970;2023-05-07T11:53:40;100087.72;;;35.02;nan
2563;BME280;1291;51.420;6.970;2023-05-07T11:56:09;100096.03;;;33.05;nan
2563;BME280;1291;51.420;6.970;2023-05-07T11:58:35;100080.81;;;35.46;nan
2563;BME280;1291;51.420;6.970;2023-05-07T12:01:01;100089.56;;;35.01;nan
2563;BME280;1291;51.420;6.970;2023-05-07T12:03:29;100094.56;;;33.81;nan
2563;BME280;1291;51.420;6.970;2023-05-07T12:05:55;100097.50;;;35.87;nan
2563;BME280;1291;51.420;6.970;2023-05-07T12:08:21;100089.09;;;34.21;nan
2563;BME280;1291;51.420;6.970;2023-05-07T12:10:50;100094.56;;;35.19;nan
2563;BME280;1291;51.420;6.970;2023-05-07T12:13:15;100094.28;;;35.70;nan
2563;BME280;1291;51.420;6.970;2023-05-07T12:15:44;100095.28;;;35.45;nan
2563;BME280;1291;51.420;6.970;2023-05-07T12:18:12;100092.25;;;36.30;nan
2563;BME280;1291;51.420;6.970;2023-05-07T12:20:39;100092.25;;;36.08;nan
2563;BME280;1291;51.420;6.970;2023-05-07T12:23:04;100095.03;;;35.83;nan
2563;BME280;1291;51.420;6.970;2023-05-07T12:25:31;100095.03;;;34.63;nan
2563;BME280;1291;51.420;6.970;2023-05-07T12:27:57;100095.59;;;34.55;nan
2563;BME280;1291;51.420;6.970;2023-05-07T12:30:24;100099.47;;;34.64;nan
2563;BME280;1291;51.420;6.970;2023-05-07T12:32:53;100100.06;;;34.43;nan
2563;BME280;1291;51.420;6.970;2023-05-07T12:35:26;100097.59;;;34.40;nan
2563;BME280;1291;51.420;6.970;2023-05-07T12:37:56;100104.69;;;33.77;nan
2563;BME280;1291;51.420;6.970;2023-05-07T12:40:21;100095.66;;;35.52;nan
2563;BME280;1291;51.420;6.970;2023-05-07T12:42:46;100100.06;;;35.77;nan
2563;BME280;1291;51.420;6.970;2023-05-07T12:45:13;100094.66;;;35.88;nan
2563;BME280;1291;51.420;6.970;2023-05-07T12:47:44;100102.22;;;34.88;nan
2563;BME280;1291;51.420;6.970;2023-05-07T12:50:10;100095.44;;;35.06;nan
2563;BME280;1291;51.420;6.970;2023-05-07T12:52:35;100108.59;;;34.12;nan
2563;BME280;1291;51.420;6.970;2023-05-07T12:55:07;100103.88;;;34.78;nan
2563;BME280;1291;51.420;6.970;2023-05-07T12:57:40;100109.31;;;35.26;nan
2563;BME280;1291;51.420;6.970;2023-05-07T13:00:06;100116.78;;;33.97;nan
2563;BME280;1291;51.420;6.970;2023-05-07T13:02:39;100120.31;;;34.49;nan
2563;BME280;1291;51.420;6.970;2023-05-07T13:05:06;100117.16;;;35.53;nan
2563;BME280;1291;51.420;6.970;2023-05-07T13:07:32;100116.81;;;35.10;nan
2563;BME280;1291;51.420;6.970;2023-05-07T13:09:57;100128.03;;;34.79;nan
2563;BME280;1291;51.420;6.970;2023-05-07T13:12:22;100129.88;;;34.79;nan
2563;BME280;1291;51.420;6.970;2023-05-07T13:14:48;100123.78;;;35.25;nan
2563;BME280;1291;51.420;6.970;2023-05-07T13:17:13;100133.81;;;33.98;nan
2563;BME280;1291;51.420;6.970;2023-05-07T13:19:38;100132.94;;;34.49;nan
2563;BME280;1291;51.420;6.970;2023-05-07T13:22:04;100129.41;;;35.22;nan
2563;BME280;1291;51.420;6.970;2023-05-07T13:24:29;100143.72;;;35.35;nan
2563;BME280;1291;51.420;6.970;2023-05-07T13:26:55;100139.75;;;35.52;nan
2563;BME280;1291;51.420;6.970;2023-05-07T13:29:20;100140.56;;;34.80;nan
2563;BME280;1291;51.420;6.970;2023-05-07T13:31:50;100151.50;;;34.66;nan
2563;BME280;1291;51.420;6.970;2023-05-07T13:34:15;100146.13;;;34.90;nan
2563;BME280;1291;51.420;6.970;2023-05-07T13:36:41;100147.59;;;34.57;nan
2563;BME280;1291;51.420;6.970;2023-05-07T13:39:07;100159.00;;;33.17;nan
2563;BME280;1291;51.420;6.970;2023-05-07T13:41:32;100156.44;;;34.08;nan
2563;BME280;1291;51.420;6.970;2023-05-07T13:43:58;100146.91;;;34.79;nan
2563;BME280;1291;51.420;6.970;2023-05-07T13:46:23;100152.50;;;34.89;nan